createdAt,value
2018-08-03T00:00:22.322Z,99.90
2018-08-03T00:02:50.848Z,99.90
2018-08-03T00:05:19.330Z,99.90
2018-08-03T00:07:48.408Z,99.90
2018-08-03T00:10:17.438Z,99.90
2018-08-03T00:12:45.930Z,99.90
2018-08-03T00:23:47.573Z,99.90
2018-08-03T00:28:45.714Z,99.90
2018-08-03T00:41:32.333Z,99.90
2018-08-03T00:44:01.597Z,99.90
2018-08-03T00:46:30.137Z,99.90
2018-08-03T00:48:58.822Z,99.90
2018-08-03T00:51:27.593Z,99.90
2018-08-03T00:53:56.149Z,99.90
2018-08-03T00:56:24.858Z,99.90
2018-08-03T00:58:53.381Z,99.90
2018-08-03T01:01:21.902Z,99.90
2018-08-03T01:03:50.906Z,99.90
2018-08-03T01:06:19.421Z,99.90
2018-08-03T01:11:16.737Z,99.90
2018-08-03T01:13:45.282Z,99.90
2018-08-03T01:22:08.241Z,99.90
2018-08-03T01:24:36.698Z,99.90
2018-08-03T01:27:05.179Z,99.90
2018-08-03T01:29:33.678Z,99.90
2018-08-03T01:32:02.167Z,99.90
2018-08-03T01:34:30.677Z,99.90
2018-08-03T01:36:59.161Z,99.90
2018-08-03T01:41:55.900Z,99.90
2018-08-03T01:46:53.842Z,99.90
2018-08-03T01:49:22.334Z,99.90
2018-08-03T01:51:51.042Z,99.90
2018-08-03T01:54:19.557Z,99.90
2018-08-03T01:56:48.057Z,99.90
2018-08-03T01:59:17.571Z,99.90
2018-08-03T02:01:46.092Z,99.90
2018-08-03T02:12:36.158Z,99.90
2018-08-03T02:15:05.393Z,99.90
2018-08-03T02:17:33.899Z,99.90
2018-08-03T02:20:02.521Z,99.90
2018-08-03T02:24:59.784Z,99.90
2018-08-03T02:27:28.446Z,99.90
2018-08-03T02:29:56.984Z,99.90
2018-08-03T02:32:25.570Z,99.90
2018-08-03T02:34:54.448Z,99.90
2018-08-03T02:37:23.018Z,99.90
2018-08-03T02:42:19.990Z,99.90
2018-08-03T02:44:50.098Z,99.90
2018-08-03T02:47:18.618Z,99.90
2018-08-03T02:49:47.393Z,99.90
2018-08-03T02:52:17.472Z,99.90
2018-08-03T02:54:46.034Z,99.90
2018-08-03T03:07:55.537Z,99.90
2018-08-03T03:10:24.030Z,99.90
2018-08-03T03:12:52.613Z,99.90
2018-08-03T03:15:21.154Z,99.90
2018-08-03T03:17:49.820Z,99.90
2018-08-03T03:20:19.163Z,99.90
2018-08-03T03:22:47.830Z,99.90
2018-08-03T03:25:17.673Z,99.90
2018-08-03T03:27:47.085Z,99.90
2018-08-03T03:31:51.136Z,99.90
2018-08-03T03:34:19.817Z,99.90
2018-08-03T03:36:48.470Z,99.90
2018-08-03T03:39:17.617Z,99.90
2018-08-03T03:41:46.682Z,99.90
2018-08-03T04:02:03.923Z,99.90
2018-08-03T04:07:00.996Z,99.90
2018-08-03T04:09:29.579Z,99.90
2018-08-03T04:11:58.129Z,99.90
2018-08-03T04:14:26.669Z,99.90
2018-08-03T04:16:55.219Z,99.90
2018-08-03T04:19:23.747Z,99.90
2018-08-03T04:21:52.265Z,99.90
2018-08-03T04:24:21.225Z,99.90
2018-08-03T04:26:50.438Z,99.90
2018-08-03T04:29:18.962Z,99.90
2018-08-03T04:31:47.488Z,99.90
2018-08-03T04:36:45.603Z,99.90
2018-08-03T04:50:23.358Z,99.90
2018-08-03T04:52:53.117Z,99.90
2018-08-03T04:55:21.607Z,99.90
2018-08-03T04:57:50.097Z,99.90
2018-08-03T05:00:19.401Z,99.90
2018-08-03T05:02:48.353Z,99.90
2018-08-03T05:05:17.462Z,99.90
2018-08-03T05:07:46.214Z,99.90
2018-08-03T05:27:43.235Z,99.90
2018-08-03T05:30:11.773Z,99.90
2018-08-03T05:35:08.860Z,99.90
2018-08-03T05:37:37.438Z,99.90
2018-08-03T05:40:06.237Z,99.90
2018-08-03T05:42:34.819Z,99.90
2018-08-03T05:45:03.378Z,99.90
2018-08-03T05:47:31.885Z,99.90
2018-08-03T05:50:00.811Z,99.90
2018-08-03T05:52:29.383Z,99.90
2018-08-03T05:54:58.732Z,99.90
2018-08-03T05:57:27.719Z,99.90
2018-08-03T06:02:25.105Z,99.90
2018-08-03T06:04:53.834Z,99.90
2018-08-03T06:07:22.389Z,99.90
2018-08-03T06:09:50.969Z,99.90
2018-08-03T06:12:20.108Z,99.90
2018-08-03T06:14:48.687Z,99.90
2018-08-03T06:17:18.014Z,97.60
2018-08-03T06:19:46.674Z,94.70
2018-08-03T06:31:50.746Z,91.70
2018-08-03T06:34:23.196Z,90.00
2018-08-03T06:36:51.787Z,68.00
2018-08-03T06:39:20.321Z,65.10
2018-08-03T06:41:48.950Z,64.20
2018-08-03T06:44:17.897Z,63.40
2018-08-03T06:51:45.026Z,56.70
2018-08-03T06:54:13.785Z,54.00
2018-08-03T06:56:42.622Z,53.10
2018-08-03T06:59:11.125Z,52.80
2018-08-03T07:01:40.014Z,52.20
2018-08-03T07:04:08.617Z,51.20
2018-08-03T07:06:37.684Z,50.80
2018-08-03T07:09:08.555Z,50.80
2018-08-03T07:11:37.278Z,49.00
2018-08-03T07:14:06.289Z,47.70
2018-08-03T07:16:34.782Z,46.40
2018-08-03T07:19:03.410Z,45.60
2018-08-03T07:21:31.929Z,44.90
2018-08-03T07:24:00.545Z,44.50
2018-08-03T07:26:30.113Z,44.00
2018-08-03T07:28:58.988Z,43.20
2018-08-03T07:31:27.533Z,43.20
2018-08-03T07:36:24.662Z,42.30
2018-08-03T07:38:53.208Z,42.20
2018-08-03T07:41:21.709Z,41.30
2018-08-03T07:43:50.587Z,40.40
2018-08-03T07:46:19.270Z,39.80
2018-08-03T07:48:47.941Z,37.60
2018-08-03T07:51:17.637Z,35.80
2018-08-03T07:53:46.173Z,35.10
2018-08-03T08:03:20.572Z,35.50
2018-08-03T08:05:48.994Z,34.80
2018-08-03T08:08:17.535Z,34.40
2018-08-03T08:10:46.088Z,33.70
2018-08-03T08:23:26.363Z,33.00
2018-08-03T08:25:54.914Z,32.70
2018-08-03T08:28:23.740Z,30.80
2018-08-03T08:30:52.385Z,29.50
2018-08-03T08:33:20.882Z,29.70
2018-08-03T08:35:49.420Z,30.00
2018-08-03T08:38:18.199Z,30.80
2018-08-03T08:40:46.725Z,30.60
2018-08-03T08:53:38.394Z,31.40
2018-08-03T08:56:06.945Z,32.70
2018-08-03T08:58:35.455Z,30.50
2018-08-03T09:01:04.150Z,30.60
2018-08-03T09:03:32.949Z,29.60
2018-08-03T09:06:01.492Z,29.30
2018-08-03T09:08:30.058Z,28.50
2018-08-03T09:10:58.919Z,28.00
2018-08-03T09:13:27.646Z,28.20
2018-08-03T09:15:56.746Z,28.30
2018-08-03T09:18:25.342Z,28.50
2018-08-03T09:20:53.897Z,28.60
2018-08-03T09:23:23.035Z,28.30
2018-08-03T09:25:51.574Z,27.70
2018-08-03T09:28:20.200Z,28.00
2018-08-03T09:30:48.833Z,28.70
2018-08-03T09:33:17.610Z,29.30
2018-08-03T09:49:05.431Z,29.60
2018-08-03T09:54:02.124Z,30.00
2018-08-03T09:56:31.727Z,30.20
2018-08-03T09:59:01.921Z,30.30
2018-08-03T10:01:30.494Z,30.70
2018-08-03T10:03:59.597Z,29.90
2018-08-03T10:06:28.156Z,29.50
2018-08-03T10:08:56.732Z,30.20
2018-08-03T10:11:25.605Z,31.10
2018-08-03T10:13:54.159Z,32.30
2018-08-03T10:16:22.773Z,34.30
2018-08-03T10:18:51.333Z,35.70
2018-08-03T10:21:20.078Z,36.00
2018-08-03T10:23:48.557Z,36.80
2018-08-03T10:26:17.505Z,37.70
2018-08-03T10:28:47.188Z,38.90
2018-08-03T10:31:17.446Z,39.80
2018-08-03T10:33:46.396Z,39.70
2018-08-03T10:44:35.547Z,41.60
2018-08-03T10:47:04.707Z,42.20
2018-08-03T10:49:33.209Z,42.70
2018-08-03T10:52:02.330Z,42.70
2018-08-03T10:54:31.216Z,43.50
2018-08-03T10:56:59.805Z,44.60
2018-08-03T10:59:29.176Z,44.90
2018-08-03T11:01:57.682Z,45.30
2018-08-03T11:04:26.597Z,45.60
2018-08-03T11:06:56.310Z,46.00
2018-08-03T11:09:24.865Z,45.60
2018-08-03T11:11:53.450Z,45.60
2018-08-03T11:14:22.413Z,46.80
2018-08-03T11:16:52.045Z,46.80
2018-08-03T11:19:20.760Z,47.00
2018-08-03T11:21:49.315Z,47.90
2018-08-03T11:24:19.078Z,47.10
2018-08-03T11:26:47.700Z,48.50
2018-08-03T11:31:51.454Z,47.30
2018-08-03T11:36:48.190Z,47.20
2018-08-03T11:39:17.574Z,47.40
2018-08-03T11:41:46.067Z,46.50
2018-08-03T11:52:10.630Z,45.40
2018-08-03T11:54:39.204Z,46.30
2018-08-03T11:57:07.845Z,47.40
2018-08-03T11:59:36.429Z,46.30
2018-08-03T12:02:05.428Z,46.70
2018-08-03T12:04:34.347Z,47.70
2018-08-03T12:07:02.901Z,47.60
2018-08-03T12:09:31.785Z,46.20
2018-08-03T12:12:00.404Z,47.40
2018-08-03T12:14:29.218Z,47.60
2018-08-03T12:16:57.802Z,47.10
2018-08-03T12:19:26.455Z,47.80
2018-08-03T12:21:55.178Z,47.10
2018-08-03T12:24:23.897Z,47.20
2018-08-03T12:26:52.707Z,47.50
2018-08-03T12:29:21.305Z,48.30
2018-08-03T12:31:49.899Z,47.90
2018-08-03T12:34:18.551Z,47.30
2018-08-03T12:36:47.182Z,47.50
2018-08-03T12:41:46.338Z,48.40
2018-08-03T13:02:37.915Z,47.50
2018-08-03T13:05:07.334Z,47.60
2018-08-03T13:07:36.990Z,47.00
2018-08-03T13:10:07.086Z,46.00
2018-08-03T13:12:37.269Z,46.50
2018-08-03T13:15:06.663Z,46.20
2018-08-03T13:17:35.186Z,45.30
2018-08-03T13:22:31.958Z,44.20
2018-08-03T13:25:01.219Z,44.40
2018-08-03T13:27:29.838Z,43.90
2018-08-03T13:29:58.294Z,45.00
2018-08-03T13:32:26.862Z,44.60
2018-08-03T13:34:55.518Z,44.50
2018-08-03T13:37:24.065Z,44.50
2018-08-03T13:42:20.834Z,45.10
2018-08-03T13:44:49.370Z,44.10
2018-08-03T13:47:18.491Z,44.90
2018-08-03T13:49:47.792Z,45.40
2018-08-03T13:58:10.035Z,43.90
2018-08-03T14:00:38.624Z,43.60
2018-08-03T14:03:08.408Z,45.00
2018-08-03T14:05:37.951Z,43.30
2018-08-03T14:08:06.664Z,44.00
2018-08-03T14:10:35.247Z,44.60
2018-08-03T14:13:03.843Z,44.10
2018-08-03T14:15:32.431Z,43.40
2018-08-03T14:18:00.965Z,44.30
2018-08-03T14:20:29.537Z,43.90
2018-08-03T14:22:58.110Z,43.30
2018-08-03T14:25:26.685Z,43.80
2018-08-03T14:27:56.149Z,43.60
2018-08-03T14:30:24.964Z,43.90
2018-08-03T14:32:53.781Z,43.00
2018-08-03T14:35:22.686Z,43.40
2018-08-03T14:37:52.046Z,42.60
2018-08-03T14:40:20.610Z,43.60
2018-08-03T14:42:49.219Z,43.50
2018-08-03T14:45:17.867Z,43.70
2018-08-03T14:47:46.592Z,42.70
2018-08-03T14:58:40.237Z,42.80
2018-08-03T15:01:08.775Z,42.60
2018-08-03T15:03:37.286Z,42.30
2018-08-03T15:06:06.981Z,42.80
2018-08-03T15:08:35.521Z,42.20
2018-08-03T15:13:32.445Z,42.90
2018-08-03T15:16:01.012Z,42.50
2018-08-03T15:18:29.624Z,42.90
2018-08-03T15:20:59.488Z,42.50
2018-08-03T15:23:28.161Z,42.90
2018-08-03T15:25:56.700Z,43.10
2018-08-03T15:28:25.314Z,42.50
2018-08-03T15:30:55.222Z,41.20
2018-08-03T15:33:23.873Z,41.40
2018-08-03T15:35:53.088Z,41.90
2018-08-03T15:38:22.406Z,42.20
2018-08-03T15:40:50.944Z,41.20
2018-08-03T15:43:20.255Z,40.60
2018-08-03T15:45:48.889Z,41.20
2018-08-03T15:48:17.775Z,41.40
2018-08-03T15:50:46.415Z,41.70
2018-08-03T16:01:37.787Z,40.90
2018-08-03T16:04:06.587Z,42.50
2018-08-03T16:06:43.561Z,41.70
2018-08-03T16:09:12.878Z,41.80
2018-08-03T16:11:41.846Z,41.70
2018-08-03T16:14:11.310Z,42.00
2018-08-03T16:16:39.867Z,41.80
2018-08-03T16:19:08.558Z,41.40
2018-08-03T16:21:37.110Z,41.90
2018-08-03T16:24:06.182Z,42.10
2018-08-03T16:26:34.877Z,42.00
2018-08-03T16:29:03.454Z,42.60
2018-08-03T16:31:32.066Z,43.10
2018-08-03T16:34:00.640Z,43.50
2018-08-03T16:36:29.634Z,44.20
2018-08-03T16:38:58.167Z,44.40
2018-08-03T16:41:26.801Z,45.80
2018-08-03T16:43:55.366Z,45.30
2018-08-03T16:46:24.410Z,46.10
2018-08-03T16:48:53.358Z,46.60
2018-08-03T16:51:23.075Z,46.80
2018-08-03T16:53:51.703Z,47.40
2018-08-03T16:56:20.247Z,47.80
2018-08-03T16:58:49.381Z,48.10
2018-08-03T17:01:17.963Z,48.60
2018-08-03T17:03:46.474Z,48.90
2018-08-03T17:24:25.704Z,49.90
2018-08-03T17:26:54.356Z,50.10
2018-08-03T17:29:22.918Z,53.60
2018-08-03T17:31:51.453Z,54.60
2018-08-03T17:34:20.217Z,54.40
2018-08-03T17:36:50.477Z,54.40
2018-08-03T17:39:19.166Z,54.60
2018-08-03T17:41:47.710Z,54.80
2018-08-03T17:44:16.669Z,55.00
2018-08-03T17:46:45.824Z,55.00
2018-08-03T17:59:57.557Z,54.70
2018-08-03T18:02:26.081Z,54.70
2018-08-03T18:04:56.601Z,55.60
2018-08-03T18:07:25.561Z,55.40
2018-08-03T18:12:22.297Z,55.70
2018-08-03T18:14:51.669Z,55.80
2018-08-03T18:17:20.503Z,55.80
2018-08-03T18:19:49.291Z,55.50
2018-08-03T18:22:18.356Z,55.50
2018-08-03T18:24:47.077Z,55.90
2018-08-03T18:31:51.350Z,56.20
2018-08-03T18:34:19.862Z,56.00
2018-08-03T18:36:48.656Z,57.00
2018-08-03T18:41:45.741Z,57.50
2018-08-03T19:02:05.310Z,57.60
2018-08-03T19:04:34.083Z,57.70
2018-08-03T19:07:04.280Z,60.90
2018-08-03T19:09:32.958Z,60.90
2018-08-03T19:12:01.597Z,61.10
2018-08-03T19:14:31.953Z,61.10
2018-08-03T19:17:01.548Z,60.90
2018-08-03T19:19:30.106Z,61.30
2018-08-03T19:21:58.974Z,61.00
2018-08-03T19:24:27.990Z,61.40
2018-08-03T19:26:56.590Z,61.60
2018-08-03T19:29:25.102Z,62.10
2018-08-03T19:31:54.085Z,61.60
2018-08-03T19:34:22.989Z,60.40
2018-08-03T19:36:51.634Z,60.40
2018-08-03T19:39:20.285Z,59.90
2018-08-03T19:41:48.811Z,59.70
2018-08-03T19:44:17.488Z,59.80
2018-08-03T19:46:46.375Z,59.60
2018-08-03T20:07:40.239Z,60.50
2018-08-03T20:10:09.147Z,60.50
2018-08-03T20:12:37.707Z,68.10
2018-08-03T20:15:06.937Z,69.20
2018-08-03T20:17:37.306Z,69.60
2018-08-03T20:20:05.941Z,70.70
2018-08-03T20:22:34.594Z,70.80
2018-08-03T20:25:03.176Z,71.40
2018-08-03T20:27:31.689Z,71.90
2018-08-03T20:30:00.347Z,72.20
2018-08-03T20:32:28.966Z,73.00
2018-08-03T20:34:57.473Z,73.80
2018-08-03T20:39:54.202Z,74.80
2018-08-03T20:42:22.822Z,74.90
2018-08-03T20:44:51.346Z,75.10
2018-08-03T20:47:19.866Z,75.60
2018-08-03T20:49:48.505Z,75.50
2018-08-03T20:52:19.361Z,75.90
2018-08-03T20:54:47.961Z,75.80
2018-08-03T21:03:37.241Z,75.90
2018-08-03T21:06:06.256Z,75.60
2018-08-03T21:08:34.883Z,76.70
2018-08-03T21:11:03.605Z,76.20
2018-08-03T21:13:32.150Z,76.70
2018-08-03T21:18:30.553Z,75.50
2018-08-03T21:20:59.101Z,75.70
2018-08-03T21:23:27.632Z,76.50
2018-08-03T21:25:56.191Z,76.50
2018-08-03T21:30:52.895Z,76.00
2018-08-03T21:33:21.792Z,76.10
2018-08-03T21:35:50.294Z,75.70
2018-08-03T21:38:18.791Z,75.40
2018-08-03T21:43:16.839Z,75.80
2018-08-03T21:45:45.370Z,76.00
2018-08-03T22:01:24.317Z,75.80
2018-08-03T22:03:53.146Z,81.30
2018-08-03T22:06:21.724Z,81.40
2018-08-03T22:08:50.239Z,82.10
2018-08-03T22:11:18.881Z,82.20
2018-08-03T22:13:47.581Z,82.70
2018-08-03T22:24:10.878Z,82.80
2018-08-03T22:26:39.557Z,83.40
2018-08-03T22:29:08.484Z,84.40
2018-08-03T22:31:37.293Z,84.60
2018-08-03T22:34:05.970Z,85.50
2018-08-03T22:36:34.465Z,85.20
2018-08-03T22:39:03.128Z,85.10
2018-08-03T22:41:31.640Z,84.80
2018-08-03T22:44:00.149Z,85.00
2018-08-03T22:46:29.244Z,85.10
2018-08-03T22:48:57.753Z,85.20
2018-08-03T22:51:26.280Z,85.30
2018-08-03T22:53:55.301Z,86.20
2018-08-03T22:56:23.824Z,86.10
2018-08-03T22:58:52.414Z,86.60
2018-08-03T23:01:20.949Z,87.20
2018-08-03T23:03:49.636Z,87.70
2018-08-03T23:06:18.126Z,88.40
2018-08-03T23:08:47.317Z,88.40
2018-08-03T23:19:35.470Z,88.50
2018-08-03T23:22:04.003Z,88.70
2018-08-03T23:24:33.390Z,91.20
2018-08-03T23:27:01.954Z,91.60
2018-08-03T23:29:31.207Z,91.70
2018-08-03T23:34:27.916Z,91.70
2018-08-03T23:36:56.436Z,91.30
2018-08-03T23:39:24.967Z,91.50
2018-08-03T23:46:49.881Z,92.30
2018-08-03T23:49:18.816Z,92.60
2018-08-03T23:51:47.494Z,92.50
2018-08-03T23:54:17.861Z,92.70
2018-08-03T23:56:46.597Z,92.60
